Time;durP1;ratioP1;P1;durP2;ratioP2;P2;SDS_P1;SDS_P2;PMS_P1;PMS_P2;Temp;Humidity;BMP_temperature;BMP_pressure;BME280_temperature;BME280_humidity;BME280_pressure;Samples;Min_cycle;Max_cycle;Signal;HPM_P1;HPM_P2
2023/06/07 00:01:51;;;;;;;9.45;3.55;;;20.70;78.60;;;;;;5053407;28;20379;-68
2023/06/07 00:04:17;;;;;;;5.70;3.10;;;20.70;78.10;;;;;;5053450;28;20063;-68
2023/06/07 00:06:43;;;;;;;8.23;3.90;;;20.70;78.30;;;;;;5052870;28;20040;-68
2023/06/07 00:09:09;;;;;;;8.38;3.75;;;20.70;78.90;;;;;;5053545;28;20037;-67
2023/06/07 00:11:36;;;;;;;9.38;3.83;;;20.60;78.50;;;;;;5052534;28;20416;-68
2023/06/07 00:14:02;;;;;;;7.70;3.33;;;20.70;78.60;;;;;;5053293;28;20040;-68
2023/06/07 00:16:28;;;;;;;7.95;3.30;;;20.60;78.70;;;;;;5053368;28;20040;-68
2023/06/07 00:18:54;;;;;;;8.55;3.85;;;20.60;78.70;;;;;;5053490;28;20445;-68
2023/06/07 00:21:20;;;;;;;7.07;3.67;;;20.60;78.50;;;;;;5053451;28;20035;-68
2023/06/07 00:23:49;;;;;;;9.00;4.30;;;20.60;79.10;;;;;;5053399;28;20358;-67
2023/06/07 00:26:15;;;;;;;10.27;3.92;;;20.50;79.20;;;;;;5053050;28;20114;-67
2023/06/07 00:28:41;;;;;;;8.52;3.72;;;20.50;79.20;;;;;;5052017;28;20083;-67
2023/06/07 00:31:07;;;;;;;7.47;3.65;;;20.50;79.30;;;;;;5052789;28;20049;-67
2023/06/07 00:33:33;;;;;;;10.50;4.00;;;20.50;79.60;;;;;;5053652;28;20040;-68
2023/06/07 00:35:59;;;;;;;11.23;3.97;;;20.40;79.70;;;;;;5052767;28;20356;-68
2023/06/07 00:38:25;;;;;;;13.73;3.20;;;20.40;79.80;;;;;;5052905;28;20032;-68
2023/06/07 00:40:51;;;;;;;6.88;3.70;;;20.30;79.90;;;;;;5052972;28;20033;-68
2023/06/07 00:43:17;;;;;;;8.45;3.15;;;20.40;80.40;;;;;;5053006;28;20036;-69
2023/06/07 00:45:43;;;;;;;8.55;3.35;;;20.40;80.00;;;;;;5053130;28;20039;-68
2023/06/07 00:48:10;;;;;;;11.57;3.92;;;20.40;80.90;;;;;;5053081;28;20025;-68
2023/06/07 00:50:36;;;;;;;12.68;4.05;;;20.40;80.30;;;;;;5052812;28;20405;-68
2023/06/07 00:53:03;;;;;;;7.03;3.90;;;20.40;80.40;;;;;;5052571;28;20025;-69
2023/06/07 00:55:29;;;;;;;12.52;4.50;;;20.40;80.20;;;;;;5052590;28;20431;-68
2023/06/07 00:57:55;;;;;;;9.40;3.67;;;20.40;80.30;;;;;;5051446;28;20116;-68
2023/06/07 01:00:22;;;;;;;10.85;4.38;;;20.30;80.30;;;;;;5052892;28;20116;-68
2023/06/07 01:02:49;;;;;;;7.88;4.15;;;20.30;80.60;;;;;;5052567;28;20067;-68
2023/06/07 01:05:16;;;;;;;11.45;4.50;;;20.20;80.90;;;;;;5052238;28;20478;-69
2023/06/07 01:07:49;;;;;;;9.82;3.80;;;20.30;80.90;;;;;;5052332;28;20033;-68
2023/06/07 01:10:15;;;;;;;10.10;4.20;;;20.30;81.00;;;;;;5052257;28;20467;-69
2023/06/07 01:12:44;;;;;;;10.10;3.80;;;20.20;80.90;;;;;;5052578;28;20458;-68
2023/06/07 01:15:12;;;;;;;7.72;3.83;;;20.20;81.10;;;;;;5052184;28;20100;-68
2023/06/07 01:17:44;;;;;;;7.88;3.95;;;20.20;81.50;;;;;;5052472;28;20029;-68
2023/06/07 01:20:19;;;;;;;12.80;3.97;;;20.20;81.60;;;;;;5052214;28;20037;-69
2023/06/07 01:22:45;;;;;;;11.02;4.25;;;20.20;81.70;;;;;;5050639;28;20331;-69
2023/06/07 01:25:12;;;;;;;13.70;4.88;;;20.20;81.50;;;;;;5051902;28;20544;-69
2023/06/07 01:27:40;;;;;;;10.70;5.25;;;20.00;82.30;;;;;;5052348;28;20078;-69
2023/06/07 01:30:08;;;;;;;15.35;4.88;;;20.00;82.30;;;;;;5051799;28;20122;-68
2023/06/07 01:32:36;;;;;;;9.98;4.60;;;19.90;82.70;;;;;;5051740;28;20036;-69
2023/06/07 01:35:03;;;;;;;9.60;4.40;;;19.80;82.80;;;;;;5049603;28;20439;-69
2023/06/07 01:37:30;;;;;;;10.82;4.72;;;19.80;82.80;;;;;;5031678;28;20120;-69
2023/06/07 01:39:56;;;;;;;9.43;4.82;;;19.60;83.40;;;;;;5031487;28;20025;-69
2023/06/07 01:42:23;;;;;;;10.02;4.30;;;19.60;83.80;;;;;;5031995;28;20052;-68
2023/06/07 01:44:49;;;;;;;14.90;5.07;;;19.50;83.90;;;;;;5030441;28;20049;-68
2023/06/07 01:47:16;;;;;;;11.95;4.57;;;19.50;84.20;;;;;;5031389;28;20030;-69
2023/06/07 01:49:42;;;;;;;8.98;5.03;;;19.40;84.30;;;;;;5031489;28;20116;-69
2023/06/07 01:52:08;;;;;;;9.10;4.47;;;19.40;84.30;;;;;;5031470;28;20120;-68
2023/06/07 01:54:34;;;;;;;13.27;4.57;;;19.50;84.30;;;;;;5031849;28;20160;-68
2023/06/07 01:57:24;;;;;;;10.45;4.55;;;19.30;84.60;;;;;;5031637;28;20026;-69
2023/06/07 01:59:55;;;;;;;10.23;4.50;;;19.30;84.80;;;;;;5031506;28;20037;-68
2023/06/07 02:02:48;;;;;;;10.98;4.85;;;19.00;85.40;;;;;;5031326;28;20152;-68
2023/06/07 02:05:17;;;;;;;11.15;4.03;;;19.00;85.90;;;;;;5031042;28;20037;-68
2023/06/07 02:07:55;;;;;;;11.82;5.10;;;18.90;86.00;;;;;;5031331;28;20030;-69
2023/06/07 02:10:24;;;;;;;10.02;4.57;;;19.00;85.60;;;;;;5031258;28;20025;-68
2023/06/07 02:12:53;;;;;;;13.32;4.60;;;19.10;85.80;;;;;;5031338;28;20402;-67
2023/06/07 02:15:19;;;;;;;13.07;4.50;;;19.10;86.00;;;;;;5031509;28;20021;-68
2023/06/07 02:17:49;;;;;;;10.45;4.57;;;19.10;85.60;;;;;;5031063;28;20060;-68
2023/06/07 02:20:16;;;;;;;12.82;4.50;;;19.10;85.70;;;;;;5030834;28;20037;-69
2023/06/07 02:22:42;;;;;;;8.95;4.15;;;19.00;86.40;;;;;;5031007;28;20030;-68
2023/06/07 02:25:08;;;;;;;11.98;5.00;;;18.90;86.90;;;;;;5031219;28;20044;-68
2023/06/07 02:27:34;;;;;;;10.68;4.45;;;19.00;86.20;;;;;;5030303;28;20026;-67
2023/06/07 02:30:00;;;;;;;9.07;4.20;;;19.10;86.20;;;;;;5031045;28;20488;-68
2023/06/07 02:32:26;;;;;;;9.75;4.32;;;18.90;86.60;;;;;;5031005;28;20026;-69
2023/06/07 02:34:52;;;;;;;12.10;4.60;;;18.90;86.80;;;;;;5030317;28;20048;-69
2023/06/07 02:37:17;;;;;;;11.85;4.40;;;18.80;87.40;;;;;;5030871;28;20439;-69
2023/06/07 02:39:43;;;;;;;14.35;4.78;;;18.80;87.20;;;;;;5031314;28;20210;-69
2023/06/07 02:42:09;;;;;;;10.48;4.35;;;18.80;87.00;;;;;;5030730;28;20025;-69
2023/06/07 02:44:35;;;;;;;14.77;4.70;;;18.90;87.00;;;;;;5030831;28;20025;-70
2023/06/07 02:47:00;;;;;;;11.82;5.05;;;18.80;87.40;;;;;;5030698;28;20026;-70
2023/06/07 02:49:26;;;;;;;12.27;4.28;;;18.70;87.80;;;;;;5030912;28;20041;-68
2023/06/07 02:51:52;;;;;;;14.38;4.97;;;18.70;88.00;;;;;;5030699;28;20459;-69
2023/06/07 02:54:19;;;;;;;14.05;4.38;;;18.80;87.80;;;;;;5031159;28;20033;-69
2023/06/07 02:56:45;;;;;;;11.60;4.63;;;18.80;87.40;;;;;;5029756;28;20044;-70
2023/06/07 02:59:11;;;;;;;11.07;5.00;;;18.60;88.40;;;;;;5031000;28;20371;-69
2023/06/07 03:01:37;;;;;;;14.18;5.28;;;18.60;89.00;;;;;;5030019;28;20033;-70
2023/06/07 03:04:03;;;;;;;13.50;5.53;;;18.50;89.10;;;;;;5029182;28;20044;-69
2023/06/07 03:06:29;;;;;;;15.18;5.28;;;18.60;88.80;;;;;;5029947;28;20030;-70
2023/06/07 03:08:56;;;;;;;10.25;4.63;;;18.60;89.10;;;;;;5030436;28;20444;-69
2023/06/07 03:11:22;;;;;;;8.43;4.55;;;18.50;89.40;;;;;;5029130;28;20475;-68
2023/06/07 03:13:49;;;;;;;13.48;5.15;;;18.40;89.70;;;;;;5030537;28;20375;-70
2023/06/07 03:16:15;;;;;;;10.32;4.85;;;18.30;90.20;;;;;;5030200;28;20068;-68
2023/06/07 03:18:40;;;;;;;19.70;5.38;;;18.20;90.30;;;;;;5030910;28;20037;-68
2023/06/07 03:21:07;;;;;;;18.10;5.00;;;18.30;90.30;;;;;;5029142;28;20037;-69
2023/06/07 03:23:33;;;;;;;13.88;5.10;;;18.50;90.80;;;;;;5030218;28;20537;-68
2023/06/07 03:25:59;;;;;;;14.10;5.05;;;18.50;91.20;;;;;;5030286;28;20033;-69
2023/06/07 03:28:25;;;;;;;18.27;5.15;;;18.20;91.90;;;;;;5030218;28;20046;-69
2023/06/07 03:30:51;;;;;;;13.23;4.57;;;18.20;92.10;;;;;;5028861;28;20416;-70
2023/06/07 03:33:16;;;;;;;17.75;4.80;;;18.40;92.10;;;;;;5030563;28;20030;-69
2023/06/07 03:35:44;;;;;;;11.93;5.43;;;18.50;92.00;;;;;;5030345;28;20123;-70
2023/06/07 03:38:10;;;;;;;15.45;5.00;;;18.50;92.00;;;;;;5030114;28;20041;-70
2023/06/07 03:40:36;;;;;;;13.55;5.38;;;18.40;92.10;;;;;;5029782;28;20063;-70
2023/06/07 03:43:01;;;;;;;10.95;4.93;;;18.20;92.20;;;;;;5028925;28;20057;-68
2023/06/07 03:45:27;;;;;;;15.25;5.93;;;18.10;92.30;;;;;;5030395;28;20025;-70
2023/06/07 03:47:53;;;;;;;11.85;5.38;;;18.10;92.40;;;;;;5033162;28;20484;-69
2023/06/07 03:50:20;;;;;;;12.07;5.22;;;18.00;92.40;;;;;;5033605;28;20358;-68
2023/06/07 03:52:45;;;;;;;11.13;5.35;;;18.10;92.50;;;;;;5033365;28;20039;-68
2023/06/07 03:55:11;;;;;;;12.35;5.15;;;17.70;92.70;;;;;;5033453;28;20101;-68
2023/06/07 03:57:37;;;;;;;15.48;5.35;;;17.70;92.90;;;;;;5033745;28;20040;-69
2023/06/07 04:00:11;;;;;;;15.18;5.60;;;17.70;92.80;;;;;;5033291;28;20037;-69
2023/06/07 04:02:37;;;;;;;16.33;5.65;;;17.60;93.00;;;;;;5033671;28;20037;-69
2023/06/07 04:05:03;;;;;;;17.45;5.75;;;17.70;92.90;;;;;;5033383;28;20095;-70
2023/06/07 04:07:30;;;;;;;17.98;6.05;;;17.80;92.70;;;;;;5033346;28;20086;-69
2023/06/07 04:09:55;;;;;;;19.88;5.22;;;17.70;92.80;;;;;;5033514;28;20025;-69
2023/06/07 04:12:21;;;;;;;15.90;6.00;;;17.60;93.00;;;;;;5033968;28;20121;-69
2023/06/07 04:14:47;;;;;;;14.70;5.85;;;17.50;93.00;;;;;;5033120;28;20037;-68
2023/06/07 04:17:12;;;;;;;15.60;6.03;;;17.60;92.90;;;;;;5033258;28;20037;-69
2023/06/07 04:19:38;;;;;;;14.52;5.82;;;17.70;92.90;;;;;;5033050;28;20494;-68
2023/06/07 04:22:04;;;;;;;14.73;5.43;;;17.70;92.80;;;;;;5031931;28;20033;-68
2023/06/07 04:24:31;;;;;;;16.83;5.32;;;17.70;92.80;;;;;;5032318;28;20021;-69
2023/06/07 04:26:58;;;;;;;14.07;5.05;;;17.80;92.80;;;;;;5032809;28;20498;-69
2023/06/07 04:29:26;;;;;;;18.58;6.35;;;17.60;93.10;;;;;;5032694;28;20032;-67
2023/06/07 04:31:56;;;;;;;17.95;6.07;;;17.70;93.10;;;;;;5032966;28;20124;-68
2023/06/07 04:34:23;;;;;;;13.57;5.60;;;17.70;93.10;;;;;;5032959;28;20044;-69
2023/06/07 04:36:50;;;;;;;20.52;5.60;;;17.70;92.90;;;;;;5032745;28;20443;-68
2023/06/07 04:39:18;;;;;;;14.68;5.88;;;17.80;92.70;;;;;;5033250;28;20057;-68
2023/06/07 04:41:45;;;;;;;19.00;5.80;;;17.60;93.10;;;;;;5032922;28;20064;-69
2023/06/07 04:44:11;;;;;;;13.60;5.30;;;17.70;93.00;;;;;;5031725;28;20040;-69
2023/06/07 04:46:39;;;;;;;22.90;6.72;;;17.80;92.80;;;;;;5032630;28;20517;-70
2023/06/07 04:49:05;;;;;;;20.13;6.00;;;17.90;92.70;;;;;;5031522;28;20406;-69
2023/06/07 04:51:32;;;;;;;14.93;7.32;;;17.90;92.80;;;;;;5032903;28;20037;-69
2023/06/07 04:54:01;;;;;;;14.30;6.30;;;17.80;93.00;;;;;;5032508;28;20076;-68
2023/06/07 04:56:27;;;;;;;17.13;6.18;;;17.60;93.20;;;;;;5032594;28;20045;-70
2023/06/07 04:58:53;;;;;;;16.80;6.78;;;17.50;93.50;;;;;;5031898;28;20518;-68
2023/06/07 05:01:20;;;;;;;19.20;7.10;;;17.50;93.90;;;;;;5032193;28;20044;-69
2023/06/07 05:03:46;;;;;;;21.27;6.55;;;17.50;94.50;;;;;;5032618;28;20029;-68
2023/06/07 05:06:11;;;;;;;20.42;6.07;;;17.70;94.10;;;;;;5032601;28;20040;-69
2023/06/07 05:08:37;;;;;;;16.85;6.95;;;17.70;94.10;;;;;;5032177;28;20383;-69
2023/06/07 05:11:03;;;;;;;21.08;7.20;;;17.80;94.30;;;;;;5031891;28;20026;-69
2023/06/07 05:13:28;;;;;;;17.73;7.03;;;17.60;94.80;;;;;;5030915;28;20044;-69
2023/06/07 05:15:54;;;;;;;17.13;7.32;;;17.60;94.70;;;;;;5031796;28;20044;-70
2023/06/07 05:18:20;;;;;;;12.80;6.32;;;17.50;94.90;;;;;;5032920;28;20332;-69
2023/06/07 05:20:47;;;;;;;18.63;6.65;;;17.60;94.90;;;;;;5030408;28;20487;-70
2023/06/07 05:23:16;;;;;;;17.73;7.00;;;17.50;95.00;;;;;;5031791;28;20108;-69
2023/06/07 05:25:46;;;;;;;17.77;6.72;;;17.50;94.70;;;;;;5031387;28;20037;-68
2023/06/07 05:28:12;;;;;;;18.05;7.65;;;17.60;94.40;;;;;;5031952;28;20057;-69
2023/06/07 05:30:38;;;;;;;27.95;7.65;;;17.70;94.30;;;;;;5032617;28;20064;-68
2023/06/07 05:33:05;;;;;;;18.38;6.60;;;17.80;94.30;;;;;;5032190;28;20045;-69
2023/06/07 05:35:32;;;;;;;20.67;6.88;;;17.70;94.20;;;;;;5030705;28;20030;-69
2023/06/07 05:37:57;;;;;;;20.60;7.25;;;17.50;94.70;;;;;;5031846;28;20060;-69
2023/06/07 05:40:23;;;;;;;19.38;7.28;;;17.60;94.50;;;;;;5031717;28;20072;-71
2023/06/07 05:42:50;;;;;;;21.33;7.70;;;17.50;94.70;;;;;;5031609;28;20443;-69
2023/06/07 05:45:16;;;;;;;17.48;7.25;;;17.70;94.40;;;;;;5032366;28;20097;-70
2023/06/07 05:47:45;;;;;;;19.58;7.13;;;17.70;94.30;;;;;;5031702;28;20021;-69
2023/06/07 05:50:11;;;;;;;17.67;7.22;;;17.70;94.60;;;;;;5030488;28;20034;-68
2023/06/07 05:52:40;;;;;;;18.48;7.47;;;17.60;94.60;;;;;;5031411;28;20375;-68
2023/06/07 05:55:06;;;;;;;23.98;7.60;;;17.60;94.60;;;;;;5031438;28;20033;-67
2023/06/07 05:57:32;;;;;;;20.02;6.85;;;17.70;95.10;;;;;;5031895;28;20444;-70
2023/06/07 05:59:58;;;;;;;19.20;7.43;;;17.60;95.50;;;;;;5031137;28;20384;-70
2023/06/07 06:02:24;;;;;;;25.38;7.47;;;17.60;96.00;;;;;;5030119;28;20264;-73
2023/06/07 06:04:53;;;;;;;17.05;7.80;;;17.70;96.40;;;;;;5031071;28;20025;-68
2023/06/07 06:07:19;;;;;;;18.55;7.25;;;17.60;95.90;;;;;;5031130;28;20087;-68
2023/06/07 06:09:45;;;;;;;17.90;6.95;;;17.40;96.60;;;;;;5030595;28;20033;-69
2023/06/07 06:12:11;;;;;;;26.83;7.90;;;17.20;96.80;;;;;;5030860;28;20026;-69
2023/06/07 06:14:37;;;;;;;26.92;8.23;;;17.40;96.90;;;;;;5030773;28;20038;-70
2023/06/07 06:17:04;;;;;;;23.25;8.00;;;17.70;97.00;;;;;;5031060;28;20094;-69
2023/06/07 06:19:30;;;;;;;18.85;7.88;;;17.80;97.10;;;;;;5031207;28;20074;-69
2023/06/07 06:21:55;;;;;;;14.05;6.70;;;17.80;97.00;;;;;;5031104;28;20033;-70
2023/06/07 06:24:21;;;;;;;24.38;7.50;;;17.90;97.10;;;;;;5031364;28;20027;-69
2023/06/07 06:26:47;;;;;;;18.55;8.07;;;17.70;97.40;;;;;;5029632;28;20120;-69
2023/06/07 06:29:12;;;;;;;21.65;8.05;;;17.50;97.40;;;;;;5029677;28;20097;-70
2023/06/07 06:31:40;;;;;;;23.02;8.23;;;17.40;97.80;;;;;;5030631;28;20091;-70
2023/06/07 06:34:07;;;;;;;;;;;17.60;97.40;;;;;;5039445;28;20014;-69
2023/06/07 06:36:33;;;;;;;18.80;7.40;;;17.60;97.60;;;;;;5049859;28;19908;-70
2023/06/07 06:39:00;;;;;;;17.42;8.05;;;17.60;97.60;;;;;;5050828;28;20033;-71
2023/06/07 06:41:25;;;;;;;17.63;7.95;;;17.40;97.90;;;;;;5050495;28;20532;-70
2023/06/07 06:43:51;;;;;;;19.98;8.85;;;17.50;98.10;;;;;;5050521;28;20033;-68
2023/06/07 06:46:17;;;;;;;25.92;9.05;;;17.60;98.40;;;;;;5050395;28;20129;-70
2023/06/07 06:48:43;;;;;;;26.10;8.48;;;17.70;98.20;;;;;;5050447;28;20515;-70
2023/06/07 06:51:08;;;;;;;26.55;9.50;;;17.80;98.20;;;;;;5049304;28;20118;-68
2023/06/07 06:53:34;;;;;;;25.33;7.97;;;17.80;98.60;;;;;;5049352;28;20359;-71
2023/06/07 06:56:02;;;;;;;23.60;8.93;;;17.90;98.40;;;;;;5050611;28;20033;-69
2023/06/07 06:58:28;;;;;;;24.88;8.18;;;17.90;98.30;;;;;;5049387;28;20033;-67
2023/06/07 07:00:53;;;;;;;28.92;7.93;;;17.80;98.20;;;;;;5050509;28;20032;-69
2023/06/07 07:03:19;;;;;;;22.13;8.18;;;17.70;98.60;;;;;;5050815;28;20024;-69
2023/06/07 07:05:45;;;;;;;31.38;8.88;;;17.50;98.50;;;;;;5050314;28;20117;-68
2023/06/07 07:08:10;;;;;;;18.23;8.88;;;17.50;98.70;;;;;;5050395;28;20063;-71
2023/06/07 07:10:36;;;;;;;18.58;8.35;;;17.60;98.70;;;;;;5050483;28;20076;-70
2023/06/07 07:13:02;;;;;;;18.75;8.85;;;17.70;98.60;;;;;;5050251;28;20354;-70
2023/06/07 07:15:28;;;;;;;19.98;8.55;;;17.60;98.50;;;;;;5050841;28;20048;-69
2023/06/07 07:17:53;;;;;;;17.75;8.00;;;17.60;98.40;;;;;;5050545;28;20079;-69
2023/06/07 07:20:19;;;;;;;25.02;9.48;;;17.70;98.30;;;;;;5049170;28;20116;-71
2023/06/07 07:22:46;;;;;;;20.35;9.45;;;17.70;98.30;;;;;;5053485;28;20124;-68
2023/06/07 07:25:13;;;;;;;22.13;8.85;;;17.80;98.20;;;;;;5054227;28;20032;-68
2023/06/07 07:27:39;;;;;;;20.15;8.90;;;17.80;98.50;;;;;;5053647;28;20028;-69
2023/06/07 07:30:05;;;;;;;21.60;8.73;;;17.80;98.30;;;;;;5053961;28;20124;-69
2023/06/07 07:32:32;;;;;;;21.60;8.75;;;17.90;98.20;;;;;;5052855;28;20025;-69
2023/06/07 07:34:58;;;;;;;23.75;9.15;;;17.90;98.50;;;;;;5054040;28;20061;-69
2023/06/07 07:37:25;;;;;;;24.80;8.77;;;17.90;98.10;;;;;;5053857;28;20056;-69
2023/06/07 07:39:51;;;;;;;21.98;9.18;;;17.90;98.50;;;;;;5053781;28;20013;-69
2023/06/07 07:42:17;;;;;;;20.40;8.10;;;17.90;98.40;;;;;;5053447;28;20120;-69
2023/06/07 07:44:42;;;;;;;26.05;8.48;;;17.80;98.40;;;;;;5053991;28;20104;-71
2023/06/07 07:47:08;;;;;;;16.13;7.88;;;17.90;98.50;;;;;;5054003;28;20037;-69
2023/06/07 07:49:34;;;;;;;18.38;8.35;;;18.00;98.50;;;;;;5052607;28;20047;-68
2023/06/07 07:52:00;;;;;;;23.08;8.50;;;17.90;98.20;;;;;;5053680;28;20033;-69
2023/06/07 07:54:26;;;;;;;25.85;9.73;;;17.60;98.10;;;;;;5054118;28;20028;-68
2023/06/07 07:56:52;;;;;;;14.95;8.25;;;17.70;98.40;;;;;;5053755;28;20112;-68
2023/06/07 07:59:17;;;;;;;31.13;9.27;;;17.60;98.60;;;;;;5053552;28;20170;-68
2023/06/07 08:01:45;;;;;;;21.27;8.05;;;17.80;98.40;;;;;;5053495;28;20048;-68
2023/06/07 08:04:11;;;;;;;22.15;9.57;;;17.80;98.30;;;;;;5053632;28;20037;-67
2023/06/07 08:06:38;;;;;;;28.23;10.13;;;18.00;98.30;;;;;;5053798;28;20159;-68
2023/06/07 08:09:05;;;;;;;17.23;8.47;;;18.10;98.10;;;;;;5053537;28;20065;-67
2023/06/07 08:11:31;;;;;;;26.63;9.95;;;18.20;97.90;;;;;;5053383;28;20025;-69
2023/06/07 08:13:57;;;;;;;19.83;9.23;;;18.40;97.50;;;;;;5052195;28;20417;-70
2023/06/07 08:16:23;;;;;;;20.17;8.40;;;18.50;97.30;;;;;;5052209;28;20033;-71
2023/06/07 08:18:55;;;;;;;18.08;9.15;;;18.60;97.10;;;;;;5053226;28;20113;-69
2023/06/07 08:21:22;;;;;;;21.67;8.75;;;18.70;96.60;;;;;;5053494;28;20534;-67
2023/06/07 08:23:48;;;;;;;23.75;8.50;;;18.80;96.80;;;;;;5051907;28;20469;-69
2023/06/07 08:26:15;;;;;;;24.48;8.25;;;18.90;96.90;;;;;;5051835;28;20025;-74
2023/06/07 08:28:42;;;;;;;28.23;9.90;;;19.20;96.70;;;;;;5052033;28;20049;-68
2023/06/07 08:31:10;;;;;;;26.15;8.98;;;19.30;96.10;;;;;;5052769;28;20048;-73
2023/06/07 08:33:36;;;;;;;25.48;9.05;;;19.40;96.00;;;;;;5052257;28;20018;-70
2023/06/07 08:36:02;;;;;;;20.88;9.63;;;19.60;96.10;;;;;;5052937;28;20025;-71
2023/06/07 08:38:27;;;;;;;29.20;9.75;;;19.90;95.60;;;;;;5052567;28;20040;-70
2023/06/07 08:40:58;;;;;;;26.73;9.68;;;19.90;95.40;;;;;;5052894;28;20048;-70
2023/06/07 08:43:25;;;;;;;28.95;10.05;;;19.90;95.60;;;;;;5052869;28;20029;-69
2023/06/07 08:45:51;;;;;;;25.20;9.80;;;19.80;95.50;;;;;;5052625;28;20017;-70
2023/06/07 08:48:17;;;;;;;23.13;9.27;;;19.40;95.70;;;;;;5052892;28;20025;-69
2023/06/07 08:50:46;;;;;;;24.17;8.93;;;19.30;96.00;;;;;;5051422;28;20099;-70
2023/06/07 08:53:18;;;;;;;25.50;10.10;;;19.20;96.00;;;;;;5052686;28;20044;-70
2023/06/07 08:55:44;;;;;;;22.80;9.77;;;19.50;96.30;;;;;;5052596;28;20127;-69
2023/06/07 08:58:11;;;;;;;22.98;9.90;;;19.60;95.60;;;;;;5052191;28;20112;-68
2023/06/07 09:00:37;;;;;;;24.42;11.65;;;19.40;95.40;;;;;;5052653;28;20021;-69
2023/06/07 09:03:03;;;;;;;22.55;9.30;;;19.40;95.90;;;;;;5052333;28;20533;-69
2023/06/07 09:05:29;;;;;;;23.50;9.93;;;19.50;95.90;;;;;;5052084;28;20375;-67
2023/06/07 09:07:56;;;;;;;20.65;9.40;;;19.60;95.60;;;;;;5051053;28;20057;-69
2023/06/07 09:10:22;;;;;;;21.05;9.45;;;19.80;95.60;;;;;;5050986;28;20063;-70
2023/06/07 09:12:48;;;;;;;18.00;9.38;;;19.90;95.10;;;;;;5051971;28;20056;-69
2023/06/07 09:15:21;;;;;;;15.95;10.05;;;19.90;94.80;;;;;;5052486;28;20099;-68
2023/06/07 09:18:02;;;;;;;22.75;9.93;;;20.00;94.70;;;;;;5050924;28;20040;-70
2023/06/07 09:20:30;;;;;;;22.33;10.63;;;20.00;95.00;;;;;;5051752;28;20024;-68
2023/06/07 09:23:13;;;;;;;25.80;10.50;;;19.60;95.40;;;;;;5051601;28;20064;-69
2023/06/07 09:25:39;;;;;;;20.95;9.90;;;19.80;95.50;;;;;;5052021;28;20029;-70
2023/06/07 09:28:15;;;;;;;26.52;10.00;;;19.90;95.20;;;;;;5052065;28;20036;-69
2023/06/07 09:30:54;;;;;;;22.17;10.13;;;20.10;95.10;;;;;;5052164;28;20041;-70
2023/06/07 09:33:28;;;;;;;26.00;9.93;;;20.20;94.70;;;;;;5052063;28;20052;-70
2023/06/07 09:36:15;;;;;;;23.05;10.48;;;20.20;94.90;;;;;;5052571;28;20037;-69
2023/06/07 09:38:41;;;;;;;29.70;12.07;;;20.20;94.80;;;;;;5052274;28;20040;-68
2023/06/07 09:41:09;;;;;;;24.33;11.40;;;20.20;94.60;;;;;;5050298;28;20039;-69
2023/06/07 09:43:54;;;;;;;30.60;10.40;;;20.20;94.90;;;;;;5050215;28;20466;-69
2023/06/07 09:46:20;;;;;;;19.58;10.13;;;20.40;94.60;;;;;;5051522;28;20040;-70
2023/06/07 09:48:53;;;;;;;27.23;10.48;;;20.50;94.20;;;;;;5050712;28;20182;-68
2023/06/07 09:51:20;;;;;;;22.45;9.93;;;20.40;94.20;;;;;;5051532;28;20037;-69
2023/06/07 09:53:59;;;;;;;21.02;10.30;;;20.50;94.50;;;;;;5051641;28;20530;-68
2023/06/07 09:56:25;;;;;;;24.83;10.55;;;20.70;94.40;;;;;;5051329;28;20047;-72
2023/06/07 09:59:13;;;;;;;24.83;10.90;;;20.80;94.10;;;;;;5051433;28;20063;-71
2023/06/07 10:01:45;;;;;;;19.85;9.63;;;20.80;93.70;;;;;;5049676;28;20045;-70
2023/06/07 10:04:11;;;;;;;25.15;10.10;;;20.80;93.80;;;;;;5049945;28;20098;-70
2023/06/07 10:06:42;;;;;;;24.95;10.48;;;21.10;93.70;;;;;;5051564;28;20031;-68
2023/06/07 10:09:09;;;;;;;31.77;15.40;;;21.40;93.50;;;;;;5049995;28;20090;-69
2023/06/07 10:11:37;;;;;;;22.92;10.70;;;21.60;92.90;;;;;;5051326;28;20458;-70
2023/06/07 10:14:14;;;;;;;23.02;10.15;;;21.80;92.80;;;;;;5050046;28;20036;-70
2023/06/07 10:16:46;;;;;;;22.08;11.18;;;21.90;92.40;;;;;;5051066;28;20025;-68
2023/06/07 10:19:27;;;;;;;27.23;10.10;;;21.70;92.50;;;;;;5050946;28;20091;-70
2023/06/07 10:21:55;;;;;;;23.23;10.55;;;21.90;92.50;;;;;;5051062;28;20021;-69
2023/06/07 10:24:27;;;;;;;23.42;10.90;;;22.10;92.30;;;;;;5050290;28;20024;-69
2023/06/07 10:27:14;;;;;;;22.35;10.63;;;22.30;92.10;;;;;;5050878;28;20238;-71
2023/06/07 10:29:45;;;;;;;20.25;10.00;;;22.50;91.70;;;;;;5049372;28;20087;-70
2023/06/07 10:32:26;;;;;;;21.85;10.68;;;22.50;91.60;;;;;;5050587;28;20029;-70
2023/06/07 10:34:54;;;;;;;20.58;10.10;;;22.50;91.20;;;;;;5050499;28;20483;-70
2023/06/07 10:37:21;;;;;;;22.58;9.77;;;22.50;91.40;;;;;;5049430;28;20132;-70
2023/06/07 10:39:47;;;;;;;24.65;9.45;;;22.50;91.50;;;;;;5051231;28;20029;-69
2023/06/07 10:42:13;;;;;;;14.30;9.00;;;22.70;91.30;;;;;;5050658;28;20033;-70
2023/06/07 10:44:39;;;;;;;17.92;9.07;;;22.70;91.10;;;;;;5050314;28;20029;-69
2023/06/07 10:47:25;;;;;;;25.00;10.13;;;22.90;91.10;;;;;;5050486;28;20539;-67
2023/06/07 10:49:51;;;;;;;18.20;8.38;;;22.90;90.90;;;;;;5050564;28;20025;-68
2023/06/07 10:52:18;;;;;;;23.38;9.65;;;22.90;90.80;;;;;;5049350;28;20028;-67
2023/06/07 10:54:47;;;;;;;28.48;10.23;;;22.90;90.90;;;;;;5050944;28;20344;-70
2023/06/07 10:57:13;;;;;;;17.08;8.60;;;22.80;91.00;;;;;;5050159;28;20123;-69
2023/06/07 10:59:40;;;;;;;16.98;8.77;;;23.10;90.90;;;;;;5050269;28;20378;-69
2023/06/07 11:02:23;;;;;;;20.05;8.20;;;23.30;90.40;;;;;;5049041;28;20090;-69
2023/06/07 11:04:53;;;;;;;16.88;7.40;;;23.30;90.30;;;;;;5050883;28;20025;-71
2023/06/07 11:07:20;;;;;;;21.10;8.13;;;23.40;90.40;;;;;;5050765;28;20188;-70
2023/06/07 11:09:48;;;;;;;28.45;9.05;;;23.60;90.40;;;;;;5051353;28;20017;-68
2023/06/07 11:12:36;;;;;;;21.13;8.00;;;23.40;90.00;;;;;;5051292;28;20032;-69
2023/06/07 11:15:20;;;;;;;13.73;7.78;;;23.50;90.20;;;;;;5050017;28;20021;-68
2023/06/07 11:18:00;;;;;;;19.05;7.93;;;23.60;89.90;;;;;;5049988;28;20029;-69
2023/06/07 11:20:44;;;;;;;20.98;8.63;;;23.70;89.40;;;;;;5048900;28;20040;-70
2023/06/07 11:23:26;;;;;;;19.55;7.45;;;23.50;89.40;;;;;;5050176;28;20092;-70
2023/06/07 11:26:11;;;;;;;12.07;5.88;;;23.70;89.80;;;;;;5050132;28;20022;-71
2023/06/07 11:28:41;;;;;;;12.38;6.20;;;23.90;88.60;;;;;;5049855;28;20025;-69
2023/06/07 11:31:11;;;;;;;15.20;6.30;;;23.70;88.10;;;;;;5050323;28;20041;-72
2023/06/07 11:33:37;;;;;;;13.13;6.43;;;23.70;88.40;;;;;;5050477;28;20029;-70
2023/06/07 11:36:04;;;;;;;11.68;6.38;;;23.80;88.80;;;;;;5051086;28;20063;-70
2023/06/07 11:38:31;;;;;;;15.70;7.00;;;23.90;88.70;;;;;;5050086;28;20030;-72
2023/06/07 11:40:57;;;;;;;21.33;7.50;;;23.90;88.10;;;;;;5050098;28;20033;-71
2023/06/07 11:43:24;;;;;;;14.68;5.65;;;24.00;88.30;;;;;;5049377;28;20048;-68
2023/06/07 11:45:54;;;;;;;14.25;5.68;;;24.00;87.60;;;;;;5049951;28;20051;-71
2023/06/07 11:48:20;;;;;;;14.82;6.50;;;24.00;88.20;;;;;;5050405;28;20092;-71
2023/06/07 11:50:47;;;;;;;9.77;5.35;;;24.10;87.10;;;;;;5049940;28;20128;-72
2023/06/07 11:53:15;;;;;;;19.98;5.88;;;24.00;86.70;;;;;;5049992;28;20036;-71
2023/06/07 11:55:41;;;;;;;;;;;24.10;87.20;;;;;;5050500;28;20029;-71
2023/06/07 11:58:07;;;;;;;13.73;5.50;;;24.00;85.90;;;;;;5050009;28;19905;-70
2023/06/07 12:00:37;;;;;;;11.75;5.47;;;23.90;86.40;;;;;;5050451;28;20037;-71
2023/06/07 12:03:06;;;;;;;13.18;4.88;;;23.90;87.10;;;;;;5049797;28;20091;-70
2023/06/07 12:05:34;;;;;;;10.10;5.35;;;24.10;86.00;;;;;;5048720;28;20030;-70
2023/06/07 12:08:03;;;;;;;;;;;24.20;85.70;;;;;;5050416;28;20036;-70
2023/06/07 12:10:29;;;;;;;8.98;4.30;;;24.20;84.80;;;;;;5053680;28;19912;-70
2023/06/07 12:13:04;;;;;;;16.60;5.32;;;24.20;84.40;;;;;;5054387;28;20064;-71
2023/06/07 12:15:30;;;;;;;8.75;4.30;;;24.30;84.30;;;;;;5054104;28;20112;-70
2023/06/07 12:17:56;;;;;;;7.30;4.50;;;24.30;83.80;;;;;;5053430;28;20123;-70
2023/06/07 12:20:22;;;;;;;14.00;5.88;;;24.40;84.00;;;;;;5053658;28;20032;-70
2023/06/07 12:22:48;;;;;;;15.93;5.10;;;24.40;84.50;;;;;;5053713;28;20029;-70
2023/06/07 12:25:18;;;;;;;12.75;4.82;;;24.40;85.10;;;;;;5053681;28;20025;-71
2023/06/07 12:27:47;;;;;;;9.68;4.13;;;24.50;84.80;;;;;;5052768;28;20063;-68
2023/06/07 12:30:13;;;;;;;8.02;4.28;;;24.50;83.70;;;;;;5052955;28;20041;-69
2023/06/07 12:32:39;;;;;;;9.70;4.80;;;24.50;82.10;;;;;;5053086;28;20028;-68
2023/06/07 12:35:05;;;;;;;12.43;4.35;;;24.50;81.50;;;;;;5053117;28;20090;-69
2023/06/07 12:37:35;;;;;;;17.15;4.75;;;24.40;80.20;;;;;;5052795;28;20180;-70
2023/06/07 12:40:04;;;;;;;6.53;4.05;;;24.30;80.80;;;;;;5052754;28;20024;-70
2023/06/07 12:42:30;;;;;;;18.35;4.80;;;24.40;81.20;;;;;;5053280;28;20036;-68